Time;durP1;ratioP1;P1;durP2;ratioP2;P2;SDS_P1;SDS_P2;PMS_P1;PMS_P2;Temp;Humidity;BMP_temperature;BMP_pressure;BME280_temperature;BME280_humidity;BME280_pressure;Samples;Min_cycle;Max_cycle;Signal;HPM_P1;HPM_P2
2022/12/07 01:01:02;;;;;;;999.28;550.92;;;27.10;99.90;;;;;;5110349;27;20434;-63
2022/12/07 01:03:28;;;;;;;1152.07;592.10;;;27.30;99.90;;;;;;5108626;28;20023;-64
2022/12/07 01:05:56;;;;;;;338.02;192.20;;;27.40;99.90;;;;;;5110122;28;20548;-64
2022/12/07 01:08:24;;;;;;;171.95;116.43;;;27.50;99.90;;;;;;5107413;28;20098;-64
2022/12/07 01:10:57;;;;;;;218.38;118.43;;;27.60;99.90;;;;;;5110097;28;20027;-64
2022/12/07 01:13:24;;;;;;;111.78;74.65;;;27.70;99.90;;;;;;5107611;28;20113;-63
2022/12/07 01:15:50;;;;;;;713.88;493.58;;;27.70;99.90;;;;;;5109996;28;20370;-63
2022/12/07 01:18:17;;;;;;;187.27;134.25;;;27.90;99.90;;;;;;5109986;28;20022;-64
2022/12/07 01:20:43;;;;;;;976.15;550.28;;;27.90;99.90;;;;;;5107144;28;20110;-64
2022/12/07 01:23:10;;;;;;;886.22;472.58;;;28.00;99.90;;;;;;5109897;28;20020;-63
2022/12/07 01:25:36;;;;;;;211.93;108.97;;;28.10;99.90;;;;;;5109844;28;20016;-63
2022/12/07 01:28:03;;;;;;;134.77;74.13;;;28.20;99.90;;;;;;5107535;28;20023;-64
2022/12/07 01:30:29;;;;;;;180.52;95.78;;;28.30;99.90;;;;;;5110467;28;20012;-63
2022/12/07 01:32:56;;;;;;;433.33;239.18;;;28.30;99.90;;;;;;5110405;28;20036;-63
2022/12/07 01:35:22;;;;;;;135.48;91.18;;;28.40;99.90;;;;;;5107439;28;20368;-63
2022/12/07 01:37:49;;;;;;;161.73;88.78;;;28.40;99.90;;;;;;5110716;28;20027;-63
2022/12/07 01:40:15;;;;;;;338.30;187.45;;;28.40;99.90;;;;;;5110569;28;20081;-63
2022/12/07 01:42:42;;;;;;;109.32;56.42;;;28.50;99.90;;;;;;5110579;28;20020;-64
2022/12/07 01:45:13;;;;;;;28.30;18.95;;;28.50;99.90;;;;;;5110718;28;20418;-63
2022/12/07 01:47:41;;;;;;;298.67;111.75;;;28.50;99.90;;;;;;5132668;22;20055;-64
2022/12/07 01:50:08;;;;;;;108.90;48.38;;;28.50;99.90;;;;;;5116111;28;20097;-62
2022/12/07 01:52:36;;;;;;;84.43;41.13;;;28.50;99.90;;;;;;5119633;28;20073;-62
2022/12/07 01:55:09;;;;;;;45.10;26.98;;;28.60;99.90;;;;;;5119978;27;20415;-64
2022/12/07 01:57:40;;;;;;;32.95;22.98;;;28.70;99.90;;;;;;5119370;28;20016;-64
2022/12/07 02:00:08;;;;;;;205.00;91.35;;;28.80;99.90;;;;;;5119066;27;20072;-64
2022/12/07 02:02:39;;;;;;;83.95;37.88;;;28.80;99.90;;;;;;5123647;28;20049;-63
2022/12/07 02:05:07;;;;;;;212.02;69.72;;;28.80;99.90;;;;;;5121455;28;20026;-64
2022/12/07 02:07:36;;;;;;;115.10;50.17;;;28.90;99.90;;;;;;5121251;28;20018;-64
2022/12/07 02:10:22;;;;;;;78.28;35.22;;;28.90;99.90;;;;;;5119907;28;20043;-63
2022/12/07 02:12:53;;;;;;;58.10;26.77;;;28.90;99.90;;;;;;5106974;28;20031;-64
2022/12/07 02:15:25;;;;;;;205.82;79.82;;;29.00;99.90;;;;;;5105309;28;20024;-65
2022/12/07 02:17:55;;;;;;;212.80;73.65;;;29.10;99.90;;;;;;5104389;28;20024;-63
2022/12/07 02:20:25;;;;;;;295.80;109.00;;;29.30;99.90;;;;;;5105238;28;20345;-63
2022/12/07 02:23:14;;;;;;;77.00;31.88;;;29.30;99.90;;;;;;5106140;28;20012;-63
2022/12/07 02:25:52;;;;;;;193.20;74.28;;;29.30;99.90;;;;;;5101989;28;20027;-62
2022/12/07 02:28:33;;;;;;;1469.68;602.95;;;29.40;99.90;;;;;;5102784;28;20016;-63
2022/12/07 02:31:07;;;;;;;272.88;115.88;;;29.40;99.90;;;;;;5103069;28;20020;-63
2022/12/07 02:33:40;;;;;;;607.50;301.50;;;29.40;99.90;;;;;;5101443;28;20017;-63
2022/12/07 02:36:14;;;;;;;231.48;100.25;;;29.50;99.90;;;;;;5104375;28;20380;-63
2022/12/07 02:38:43;;;;;;;46.70;26.25;;;29.50;99.90;;;;;;5103020;28;20571;-64
2022/12/07 02:41:18;;;;;;;244.70;158.57;;;29.40;99.90;;;;;;5103860;28;20126;-64
2022/12/07 02:43:47;;;;;;;55.38;37.08;;;29.50;99.90;;;;;;5099324;28;20020;-63
2022/12/07 02:46:22;;;;;;;421.83;296.00;;;29.50;99.90;;;;;;5095717;28;20012;-64
2022/12/07 02:48:49;;;;;;;188.55;125.25;;;29.60;99.90;;;;;;5095416;28;20055;-64
2022/12/07 02:51:18;;;;;;;175.98;100.05;;;29.70;99.90;;;;;;5095448;28;20024;-64
2022/12/07 02:53:45;;;;;;;14.52;11.50;;;29.70;99.90;;;;;;5095505;28;20055;-64
2022/12/07 02:56:34;;;;;;;18.13;13.30;;;29.70;99.90;;;;;;5095394;28;20040;-64
2022/12/07 02:59:06;;;;;;;30.88;21.55;;;29.70;99.90;;;;;;5095195;28;20032;-64
2022/12/07 03:01:35;;;;;;;98.70;68.72;;;29.80;99.90;;;;;;5095244;28;20032;-64
2022/12/07 03:04:09;;;;;;;321.70;155.65;;;29.90;99.90;;;;;;5095270;28;20063;-64
2022/12/07 03:06:44;;;;;;;135.77;82.15;;;29.90;99.90;;;;;;5095203;28;20107;-64
2022/12/07 03:09:20;;;;;;;17.90;11.43;;;29.90;99.90;;;;;;5095209;28;20024;-65
2022/12/07 03:11:55;;;;;;;24.00;14.70;;;29.80;99.90;;;;;;5095457;28;20107;-64
2022/12/07 03:14:30;;;;;;;68.35;27.15;;;29.80;99.90;;;;;;5094953;28;20039;-64
2022/12/07 03:17:19;;;;;;;100.50;38.60;;;29.90;99.90;;;;;;5095108;28;20082;-64
2022/12/07 03:19:49;;;;;;;81.68;29.80;;;30.00;99.90;;;;;;5094946;28;20064;-64
2022/12/07 03:22:18;;;;;;;441.13;120.60;;;30.10;99.90;;;;;;5089719;28;20405;-64
2022/12/07 03:24:52;;;;;;;39.33;16.02;;;30.10;99.90;;;;;;5094667;28;20028;-64
2022/12/07 03:27:24;;;;;;;138.52;40.55;;;30.20;99.90;;;;;;5094800;28;20468;-64
2022/12/07 03:29:59;;;;;;;26.33;12.65;;;30.10;99.90;;;;;;5095248;28;20429;-64
2022/12/07 03:32:30;;;;;;;133.43;40.92;;;30.00;99.90;;;;;;5094768;28;20036;-64
2022/12/07 03:35:06;;;;;;;100.90;31.58;;;30.00;99.90;;;;;;5094652;28;20021;-64
2022/12/07 03:37:40;;;;;;;45.63;16.75;;;29.90;99.90;;;;;;5094559;28;20050;-63
2022/12/07 03:40:16;;;;;;;16.08;9.45;;;29.90;99.90;;;;;;5093367;28;20024;-64
2022/12/07 03:42:43;;;;;;;162.60;90.82;;;29.90;99.90;;;;;;5094528;28;20099;-64
2022/12/07 03:45:11;;;;;;;19.48;15.15;;;29.90;99.90;;;;;;5094641;28;20016;-64
2022/12/07 03:47:48;;;;;;;21.73;16.27;;;29.90;99.90;;;;;;5094290;28;20370;-65
2022/12/07 03:50:35;;;;;;;49.42;26.50;;;29.90;99.90;;;;;;5094419;28;20376;-64
2022/12/07 03:53:16;;;;;;;20.38;14.30;;;29.90;99.90;;;;;;5092362;28;20028;-64
2022/12/07 03:55:46;;;;;;;179.45;64.25;;;29.90;99.90;;;;;;5082897;28;20038;-65
2022/12/07 03:58:17;;;;;;;31.73;17.33;;;29.90;99.90;;;;;;5073979;28;20116;-64
2022/12/07 04:00:45;;;;;;;259.63;93.93;;;29.90;99.90;;;;;;5073737;28;20489;-64
2022/12/07 04:03:12;;;;;;;158.25;63.65;;;29.90;99.90;;;;;;5074023;28;20032;-65
2022/12/07 04:05:39;;;;;;;21.30;12.27;;;30.10;99.90;;;;;;5073982;28;20381;-65
2022/12/07 04:08:06;;;;;;;14.23;9.52;;;30.10;99.90;;;;;;5073743;28;20016;-64
2022/12/07 04:10:32;;;;;;;23.05;13.50;;;30.20;99.90;;;;;;5073764;28;20032;-64
2022/12/07 04:12:59;;;;;;;38.75;19.27;;;30.30;99.90;;;;;;5073922;28;20473;-64
2022/12/07 04:15:26;;;;;;;137.60;88.90;;;30.40;99.90;;;;;;5073624;28;20032;-64
2022/12/07 04:17:52;;;;;;;71.47;33.42;;;30.40;99.90;;;;;;5073486;28;20032;-63
2022/12/07 04:20:19;;;;;;;23.40;14.85;;;30.50;99.90;;;;;;5073491;28;20028;-64
2022/12/07 04:22:45;;;;;;;21.25;14.38;;;30.60;99.90;;;;;;5073405;28;20032;-63
2022/12/07 04:25:12;;;;;;;317.48;137.95;;;30.60;99.90;;;;;;5073553;28;20024;-63
2022/12/07 04:27:39;;;;;;;45.53;25.02;;;30.70;99.90;;;;;;5073592;28;20099;-64
2022/12/07 04:30:06;;;;;;;17.20;11.85;;;30.80;99.90;;;;;;5073418;28;20031;-65
2022/12/07 04:32:32;;;;;;;23.17;12.57;;;30.80;99.90;;;;;;5084012;28;20027;-64
2022/12/07 04:34:59;;;;;;;19.02;13.93;;;30.90;99.90;;;;;;5113951;28;20028;-64
2022/12/07 04:37:25;;;;;;;17.02;10.68;;;30.80;99.90;;;;;;5113847;28;20023;-72
2022/12/07 04:39:52;;;;;;;15.05;11.63;;;30.80;99.90;;;;;;5104173;28;20471;-70
2022/12/07 04:42:18;;;;;;;18.45;16.55;;;30.70;99.90;;;;;;5081222;28;20466;-72
2022/12/07 04:44:45;;;;;;;29.80;19.58;;;30.70;99.90;;;;;;5075580;28;20027;-71
2022/12/07 04:47:11;;;;;;;32.92;18.98;;;30.60;99.90;;;;;;5082111;28;20017;-70
2022/12/07 04:49:38;;;;;;;27.73;15.32;;;30.60;99.90;;;;;;5074494;28;20471;-69
2022/12/07 04:52:05;;;;;;;31.98;15.05;;;30.60;99.90;;;;;;5082612;28;20031;-76
2022/12/07 04:54:31;;;;;;;16.52;12.63;;;30.60;99.90;;;;;;5073407;28;20385;-70
2022/12/07 04:56:58;;;;;;;34.50;18.00;;;30.60;99.90;;;;;;5073308;28;20027;-71
2022/12/07 04:59:24;;;;;;;28.60;17.48;;;30.70;99.90;;;;;;5073184;28;20479;-69
2022/12/07 05:01:51;;;;;;;51.22;23.15;;;30.80;99.90;;;;;;5073237;28;20504;-74
2022/12/07 05:04:17;;;;;;;57.63;22.73;;;30.90;99.90;;;;;;5073334;28;20020;-75
2022/12/07 05:06:44;;;;;;;25.80;15.20;;;31.00;99.90;;;;;;5073413;28;20104;-76
2022/12/07 05:09:11;;;;;;;14.43;12.02;;;31.10;99.90;;;;;;5073156;28;20031;-71
2022/12/07 05:11:38;;;;;;;13.55;11.98;;;31.20;99.90;;;;;;5083710;28;20469;-70
2022/12/07 05:14:10;;;;;;;19.65;13.73;;;31.20;99.90;;;;;;5073138;28;20039;-71
2022/12/07 05:16:37;;;;;;;;;;;31.20;99.90;;;;;;5082984;28;20024;-72
2022/12/07 05:19:04;;;;;;;20.60;12.57;;;31.20;99.90;;;;;;5093190;28;19908;-73
2022/12/07 05:21:30;;;;;;;40.97;27.48;;;31.20;99.90;;;;;;5093258;28;20013;-71
2022/12/07 05:23:57;;;;;;;30.70;20.80;;;31.20;99.90;;;;;;5085650;28;20433;-73
2022/12/07 05:26:23;;;;;;;17.17;13.70;;;31.20;99.90;;;;;;5075241;28;20103;-69
2022/12/07 05:28:52;;;;;;;16.35;12.07;;;31.40;99.90;;;;;;5086945;28;20028;-73
2022/12/07 05:31:19;;;;;;;24.30;13.70;;;31.50;99.90;;;;;;5074687;28;20496;-70
2022/12/07 05:33:46;;;;;;;16.17;13.98;;;31.50;99.90;;;;;;5081928;28;20473;-72
2022/12/07 05:36:13;;;;;;;15.93;12.65;;;31.50;99.90;;;;;;5075285;28;20021;-72
2022/12/07 05:38:40;;;;;;;22.60;14.02;;;31.50;99.90;;;;;;5072764;28;20259;-72
2022/12/07 05:42:11;;;;;;;23.30;15.75;;;31.50;99.90;;;;;;5072885;28;20534;-64
2022/12/07 05:43:55;;;;;;;18.48;11.25;;;31.50;99.90;;;;;;5072524;28;20025;-66
2022/12/07 05:46:21;;;;;;;14.68;11.27;;;31.50;99.90;;;;;;5074225;28;20021;-66
2022/12/07 05:48:48;;;;;;;15.88;11.23;;;31.50;99.90;;;;;;5076419;28;20229;-66
2022/12/07 05:51:14;;;;;;;28.55;16.58;;;31.50;99.90;;;;;;5076968;28;20017;-64
2022/12/07 05:53:41;;;;;;;19.38;12.05;;;31.50;99.90;;;;;;5076819;28;20020;-64
2022/12/07 05:56:07;;;;;;;16.33;13.10;;;31.60;99.90;;;;;;5076426;28;20094;-64
2022/12/07 06:01:03;;;;;;;18.55;12.60;;;31.50;99.90;;;;;;5076301;28;20025;-65
2022/12/07 06:03:29;;;;;;;14.07;10.85;;;31.50;99.90;;;;;;5076141;28;20432;-64
2022/12/07 06:05:56;;;;;;;14.95;12.93;;;31.40;99.90;;;;;;5076028;28;20404;-64
2022/12/07 06:08:22;;;;;;;20.10;13.85;;;31.30;99.90;;;;;;5085693;28;20020;-64
2022/12/07 06:12:33;;;;;;;23.58;15.05;;;31.40;99.90;;;;;;5105886;28;20107;-64
2022/12/07 06:13:35;;;;;;;20.70;15.02;;;31.40;99.90;;;;;;5105361;28;20051;-64
2022/12/07 06:16:01;;;;;;;15.02;11.95;;;31.40;99.90;;;;;;5097394;28;20048;-64
2022/12/07 06:18:28;;;;;;;15.75;12.13;;;31.40;99.90;;;;;;5101416;28;20028;-64
2022/12/07 06:20:54;;;;;;;15.38;13.35;;;31.40;99.90;;;;;;5103755;28;20063;-64
2022/12/07 06:23:21;;;;;;;15.90;12.95;;;31.40;99.90;;;;;;5105557;28;20023;-63
2022/12/07 06:25:47;;;;;;;17.25;13.25;;;31.50;99.90;;;;;;5104950;28;20461;-64
2022/12/07 06:28:14;;;;;;;21.52;14.80;;;31.50;99.90;;;;;;5103492;28;20063;-64
2022/12/07 06:30:40;;;;;;;24.95;8.30;;;31.50;99.90;;;;;;5103449;27;20024;-64
2022/12/07 06:33:07;;;;;;;13.05;4.50;;;31.10;99.90;;;;;;5101437;27;20077;-63
2022/12/07 06:35:34;;;;;;;20.42;5.30;;;30.30;99.90;;;;;;5099936;28;20035;-65
2022/12/07 06:38:00;;;;;;;15.57;4.60;;;29.80;99.90;;;;;;5104280;28;20380;-65
2022/12/07 06:40:27;;;;;;;11.82;4.35;;;29.50;99.90;;;;;;5105482;28;20016;-65
2022/12/07 06:42:53;;;;;;;14.27;4.53;;;29.10;99.90;;;;;;5104079;28;20073;-64
2022/12/07 06:45:20;;;;;;;17.45;6.90;;;28.90;99.90;;;;;;5104041;28;20073;-64
2022/12/07 06:47:46;;;;;;;10.10;3.45;;;28.60;99.90;;;;;;5105171;28;20544;-65
2022/12/07 06:50:13;;;;;;;15.25;9.18;;;28.40;99.90;;;;;;5104558;28;20085;-65
2022/12/07 06:52:39;;;;;;;21.38;8.85;;;28.10;99.90;;;;;;5110605;28;20096;-63
2022/12/07 06:55:06;;;;;;;6.70;4.28;;;28.00;99.90;;;;;;5098452;28;20020;-64
2022/12/07 06:57:33;;;;;;;22.10;14.63;;;28.00;99.90;;;;;;5095250;28;20460;-64
2022/12/07 06:59:59;;;;;;;11.07;4.15;;;28.00;99.90;;;;;;5095377;28;20028;-64
2022/12/07 07:02:25;;;;;;;12.57;6.65;;;28.00;99.90;;;;;;5095378;28;20012;-64
2022/12/07 07:04:52;;;;;;;7.32;4.55;;;27.80;99.90;;;;;;5092780;28;20491;-64
2022/12/07 07:07:18;;;;;;;92.97;72.40;;;27.80;99.90;;;;;;5078375;28;20031;-65
2022/12/07 07:09:45;;;;;;;125.13;87.65;;;27.80;99.90;;;;;;5091128;28;20015;-65
2022/12/07 07:12:11;;;;;;;1107.05;647.17;;;27.80;99.90;;;;;;5094120;28;20495;-65
2022/12/07 07:14:38;;;;;;;32.95;19.73;;;27.80;99.90;;;;;;5083304;28;20020;-64
2022/12/07 07:17:04;;;;;;;79.57;43.67;;;27.80;99.90;;;;;;5074822;28;20032;-62
2022/12/07 07:19:31;;;;;;;88.53;34.88;;;27.80;99.90;;;;;;5076441;28;20107;-63
2022/12/07 07:21:57;;;;;;;36.33;18.90;;;27.70;99.90;;;;;;5103351;28;20024;-62
2022/12/07 07:24:24;;;;;;;530.60;450.02;;;27.90;99.90;;;;;;5104561;28;20035;-62
2022/12/07 07:26:50;;;;;;;235.15;180.50;;;28.00;99.90;;;;;;5102460;28;20028;-62
2022/12/07 07:29:17;;;;;;;77.57;52.97;;;27.90;99.90;;;;;;5103647;28;20036;-62
2022/12/07 07:31:43;;;;;;;203.82;129.07;;;28.00;99.90;;;;;;5104319;28;20028;-62
2022/12/07 07:34:10;;;;;;;445.25;343.85;;;28.00;99.90;;;;;;5102295;28;20464;-62
2022/12/07 07:36:36;;;;;;;97.00;68.53;;;28.10;99.90;;;;;;5103706;28;20024;-62
2022/12/07 07:39:04;;;;;;;1304.60;825.08;;;28.20;99.90;;;;;;5103948;28;20036;-62
2022/12/07 07:41:32;;;;;;;614.13;500.17;;;28.30;99.90;;;;;;5102176;28;20027;-61
2022/12/07 07:43:58;;;;;;;537.13;481.55;;;28.30;99.90;;;;;;5103710;28;20012;-61
2022/12/07 07:46:25;;;;;;;398.77;355.30;;;28.20;99.90;;;;;;5099702;28;20100;-61
2022/12/07 07:48:51;;;;;;;1242.15;889.38;;;28.30;99.90;;;;;;5083028;28;20064;-61
2022/12/07 07:51:18;;;;;;;1104.30;821.83;;;28.30;99.90;;;;;;5074163;28;20075;-62
2022/12/07 07:53:44;;;;;;;390.17;338.83;;;28.20;99.90;;;;;;5074057;28;20050;-62
2022/12/07 07:56:11;;;;;;;48.17;37.28;;;28.40;99.90;;;;;;5074060;28;20023;-62
2022/12/07 07:58:39;;;;;;;63.55;46.50;;;28.40;99.90;;;;;;5074135;28;20027;-62
2022/12/07 08:01:07;;;;;;;312.02;231.13;;;28.30;99.90;;;;;;5079643;28;20032;-61
2022/12/07 08:03:34;;;;;;;18.63;12.32;;;28.30;99.90;;;;;;5094488;28;20077;-62
2022/12/07 08:06:01;;;;;;;69.20;53.88;;;28.20;99.90;;;;;;5094195;28;20020;-65
2022/12/07 08:08:28;;;;;;;142.93;96.20;;;28.30;99.90;;;;;;5091070;28;20143;-61
2022/12/07 08:10:55;;;;;;;67.10;49.42;;;28.20;99.90;;;;;;5077485;28;20165;-62
2022/12/07 08:13:21;;;;;;;40.47;24.05;;;28.10;99.90;;;;;;5079113;28;20024;-62
2022/12/07 08:15:48;;;;;;;283.23;213.05;;;28.00;99.90;;;;;;5082479;28;20051;-62
2022/12/07 08:18:16;;;;;;;60.38;41.67;;;28.00;99.90;;;;;;5077930;28;20362;-62
2022/12/07 08:20:42;;;;;;;107.45;71.20;;;27.90;99.90;;;;;;5085137;28;20169;-61
2022/12/07 08:23:10;;;;;;;339.73;209.73;;;28.00;99.90;;;;;;5072874;28;20395;-61
2022/12/07 08:25:37;;;;;;;433.80;236.13;;;27.90;99.90;;;;;;5073811;28;20103;-62
2022/12/07 08:28:04;;;;;;;37.83;21.52;;;28.00;99.90;;;;;;5073364;28;20099;-62
2022/12/07 08:30:31;;;;;;;568.75;247.25;;;28.10;99.90;;;;;;5073509;28;20062;-62
2022/12/07 08:32:57;;;;;;;52.67;24.63;;;28.00;99.90;;;;;;5073519;28;20103;-62
2022/12/07 08:35:24;;;;;;;32.72;15.35;;;28.00;99.90;;;;;;5073571;28;20507;-62
2022/12/07 08:37:51;;;;;;;45.78;28.83;;;28.00;99.90;;;;;;5078981;28;20473;-62
2022/12/07 08:40:18;;;;;;;35.55;19.13;;;28.10;99.90;;;;;;5079360;28;20024;-63
2022/12/07 08:42:52;;;;;;;191.45;107.18;;;28.10;99.90;;;;;;5073245;28;20033;-62
2022/12/07 08:45:20;;;;;;;350.13;225.70;;;28.00;99.90;;;;;;5083211;28;20016;-61
2022/12/07 08:47:52;;;;;;;81.63;46.15;;;28.20;99.90;;;;;;5103075;28;20042;-63
2022/12/07 08:50:19;;;;;;;34.35;20.80;;;28.10;99.90;;;;;;5102728;28;20439;-61
2022/12/07 08:52:51;;;;;;;22.98;14.38;;;28.20;99.90;;;;;;5101278;28;20491;-63
2022/12/07 08:55:18;;;;;;;18.77;12.63;;;28.10;99.90;;;;;;5101693;28;20038;-61
2022/12/07 08:57:45;;;;;;;19.92;14.38;;;28.00;99.90;;;;;;5102756;28;20048;-62
2022/12/07 09:00:12;;;;;;;31.90;14.90;;;28.00;99.90;;;;;;5096302;28;20020;-63
2022/12/07 09:02:40;;;;;;;23.38;14.38;;;27.80;99.90;;;;;;5093495;28;20055;-61
2022/12/07 09:05:07;;;;;;;28.73;15.88;;;27.80;99.90;;;;;;5101713;28;20015;-61
2022/12/07 09:07:34;;;;;;;25.77;16.15;;;27.80;99.90;;;;;;5101176;28;20024;-62
2022/12/07 09:10:01;;;;;;;27.65;17.63;;;27.90;99.90;;;;;;5101382;28;20149;-61
2022/12/07 09:12:28;;;;;;;23.42;15.25;;;27.80;99.90;;;;;;5102991;28;20430;-60
2022/12/07 09:14:54;;;;;;;26.23;17.60;;;27.90;99.90;;;;;;5101590;28;20095;-63
2022/12/07 09:17:21;;;;;;;26.13;17.65;;;27.70;99.90;;;;;;5101572;28;20024;-62
2022/12/07 09:19:48;;;;;;;26.83;16.55;;;27.60;99.90;;;;;;5103154;28;20035;-60
2022/12/07 09:22:14;;;;;;;85.35;56.13;;;27.70;99.90;;;;;;5101826;28;20048;-61
2022/12/07 09:24:41;;;;;;;33.10;18.95;;;27.60;99.90;;;;;;5104839;28;20032;-62
2022/12/07 09:27:07;;;;;;;31.98;18.33;;;27.80;99.90;;;;;;5100203;28;20380;-62
2022/12/07 09:29:34;;;;;;;32.40;17.75;;;27.70;99.90;;;;;;5108836;28;20020;-61
2022/12/07 09:32:00;;;;;;;31.02;18.42;;;27.40;99.90;;;;;;5104045;28;20547;-60
2022/12/07 09:34:27;;;;;;;28.10;16.00;;;27.50;99.90;;;;;;5099296;28;20042;-64
2022/12/07 09:36:53;;;;;;;26.85;17.23;;;27.40;99.90;;;;;;5102819;28;20028;-60
2022/12/07 09:39:20;;;;;;;29.35;17.77;;;27.60;99.90;;;;;;5106370;28;20020;-61
2022/12/07 09:41:47;;;;;;;26.30;15.48;;;27.40;99.90;;;;;;5104022;28;20494;-61
2022/12/07 09:44:20;;;;;;;43.72;21.20;;;27.50;99.90;;;;;;5106472;28;20028;-61
2022/12/07 09:46:47;;;;;;;42.67;24.52;;;27.50;99.90;;;;;;5103789;28;20016;-61
2022/12/07 09:49:19;;;;;;;31.35;19.33;;;27.50;99.90;;;;;;5104342;28;20078;-60
2022/12/07 09:51:45;;;;;;;;;;;27.40;99.90;;;;;;5103814;28;20024;-61
2022/12/07 09:54:16;;;;;;;38.20;19.42;;;27.50;99.90;;;;;;5104878;28;20279;-61
2022/12/07 09:56:44;;;;;;;25.92;16.10;;;27.40;99.90;;;;;;5096588;28;20039;-60
2022/12/07 09:59:17;;;;;;;25.85;16.17;;;27.40;99.90;;;;;;5090443;28;20089;-60
2022/12/07 10:01:47;;;;;;;40.40;19.85;;;27.50;99.90;;;;;;5096453;28;20038;-62
2022/12/07 10:04:26;;;;;;;43.83;19.52;;;27.40;99.90;;;;;;5096502;28;20024;-62
2022/12/07 10:06:52;;;;;;;35.85;14.60;;;27.10;99.90;;;;;;5090410;28;20098;-62
2022/12/07 10:09:21;;;;;;;29.70;15.32;;;27.40;99.90;;;;;;5085275;28;20097;-62
2022/12/07 10:11:53;;;;;;;23.65;13.75;;;27.30;99.90;;;;;;5085234;28;20035;-63
2022/12/07 10:14:20;;;;;;;19.67;13.63;;;27.50;99.90;;;;;;5084792;28;20048;-62
2022/12/07 10:16:47;;;;;;;135.50;50.75;;;27.40;99.90;;;;;;5080441;28;20167;-62
2022/12/07 10:19:19;;;;;;;30.27;14.95;;;27.20;99.90;;;;;;5085966;28;20032;-60
2022/12/07 10:22:00;;;;;;;21.25;12.68;;;27.50;99.90;;;;;;5079875;28;20028;-62
2022/12/07 10:24:26;;;;;;;83.60;35.53;;;27.40;99.90;;;;;;5084593;28;20060;-62
2022/12/07 10:26:54;;;;;;;40.95;20.25;;;27.60;99.90;;;;;;5082830;28;20028;-62
2022/12/07 10:29:25;;;;;;;122.88;66.65;;;27.60;99.90;;;;;;5087799;28;20066;-63
2022/12/07 10:32:14;;;;;;;81.72;34.45;;;27.60;99.90;;;;;;5083977;28;20024;-63
2022/12/07 10:34:41;;;;;;;25.90;13.02;;;27.40;99.90;;;;;;5081040;28;20047;-63
2022/12/07 10:37:27;;;;;;;20.95;12.30;;;27.50;99.90;;;;;;5093221;28;20036;-64
2022/12/07 10:39:56;;;;;;;19.77;10.25;;;27.30;99.90;;;;;;5085269;28;20169;-65
2022/12/07 10:42:25;;;;;;;24.30;11.45;;;27.30;99.90;;;;;;5084483;28;20024;-65
2022/12/07 10:44:57;;;;;;;40.28;17.40;;;27.30;99.90;;;;;;5085460;28;20389;-65
2022/12/07 10:47:26;;;;;;;24.20;12.63;;;27.40;99.90;;;;;;5090756;28;20043;-65
2022/12/07 10:50:02;;;;;;;94.43;41.15;;;27.40;99.90;;;;;;5084105;28;20033;-64
2022/12/07 10:52:31;;;;;;;33.38;17.77;;;27.40;99.90;;;;;;5077856;28;20025;-64
2022/12/07 10:55:09;;;;;;;44.88;23.40;;;27.50;99.90;;;;;;5084069;28;20078;-64
2022/12/07 10:57:38;;;;;;;70.35;32.17;;;27.50;99.90;;;;;;5077358;28;20069;-64
2022/12/07 11:00:08;;;;;;;52.08;27.17;;;27.60;99.90;;;;;;5083871;28;20027;-64
2022/12/07 11:02:46;;;;;;;39.88;18.13;;;27.60;99.90;;;;;;5077115;28;20123;-64
2022/12/07 11:05:15;;;;;;;41.90;20.52;;;27.50;99.90;;;;;;5080882;28;20035;-63
2022/12/07 11:07:47;;;;;;;79.45;32.35;;;27.60;99.90;;;;;;5077506;28;20109;-64
2022/12/07 11:10:22;;;;;;;31.45;17.88;;;27.50;99.90;;;;;;5086971;28;20454;-62
2022/12/07 11:12:57;;;;;;;26.42;14.80;;;27.50;99.90;;;;;;5088647;28;20093;-64
2022/12/07 11:15:26;;;;;;;43.30;20.23;;;27.40;99.90;;;;;;5088334;28;20476;-64
2022/12/07 11:17:57;;;;;;;28.52;14.15;;;27.40;99.90;;;;;;5090488;28;20028;-63
2022/12/07 11:20:29;;;;;;;36.45;15.40;;;27.30;99.90;;;;;;5095711;28;20028;-64
2022/12/07 11:23:01;;;;;;;28.73;13.73;;;27.20;99.90;;;;;;5088100;28;20028;-67
2022/12/07 11:25:41;;;;;;;28.90;14.43;;;27.20;99.90;;;;;;5081215;28;20013;-65
2022/12/07 11:28:10;;;;;;;34.65;16.63;;;27.10;99.90;;;;;;5074698;28;20027;-63
2022/12/07 11:30:40;;;;;;;36.80;17.08;;;27.10;99.90;;;;;;5074661;28;20029;-64
2022/12/07 11:33:15;;;;;;;39.83;17.50;;;27.10;99.90;;;;;;5074560;28;20020;-65
2022/12/07 11:35:44;;;;;;;41.30;18.52;;;27.20;99.90;;;;;;5075257;28;20056;-64
2022/12/07 11:38:17;;;;;;;53.45;25.42;;;27.20;99.90;;;;;;5084406;28;20021;-69
2022/12/07 11:40:47;;;;;;;;;;;27.10;99.90;;;;;;5074695;28;20104;-67
2022/12/07 11:43:19;;;;;;;78.25;36.08;;;27.20;99.90;;;;;;5073771;28;19908;-64
2022/12/07 11:45:55;;;;;;;50.58;26.92;;;27.30;99.90;;;;;;5074274;28;20108;-66
2022/12/07 11:48:29;;;;;;;49.60;25.45;;;27.20;99.90;;;;;;5074270;28;20044;-64
2022/12/07 11:50:59;;;;;;;57.58;26.65;;;27.20;99.90;;;;;;5074046;28;20024;-65
2022/12/07 11:53:30;;;;;;;63.63;29.17;;;27.10;99.90;;;;;;5079485;28;20024;-64
2022/12/07 11:56:05;;;;;;;47.35;26.75;;;27.20;99.90;;;;;;5079587;28;20077;-64
2022/12/07 11:58:33;;;;;;;50.13;23.80;;;27.20;99.90;;;;;;5074147;28;20489;-64
2022/12/07 12:01:22;;;;;;;50.35;24.77;;;27.20;99.90;;;;;;5074880;28;20244;-64
2022/12/07 12:03:52;;;;;;;46.72;26.58;;;27.30;99.90;;;;;;5061536;28;20040;-67
2022/12/07 12:06:19;;;;;;;50.35;23.38;;;27.30;99.90;;;;;;5074679;28;20032;-64
2022/12/07 12:08:53;;;;;;;30.45;19.02;;;27.30;99.90;;;;;;5074182;28;20096;-68
2022/12/07 12:11:32;;;;;;;43.58;20.23;;;27.20;99.90;;;;;;5075132;28;20107;-64
2022/12/07 12:14:01;;;;;;;40.88;22.60;;;27.10;99.90;;;;;;5090372;28;20036;-64
2022/12/07 12:16:30;;;;;;;42.10;22.52;;;27.20;99.90;;;;;;5073899;28;20040;-64
2022/12/07 12:19:02;;;;;;;127.75;77.97;;;27.30;99.90;;;;;;5073684;28;20096;-66
2022/12/07 12:21:30;;;;;;;68.93;39.00;;;27.30;99.90;;;;;;5073616;28;20469;-64
2022/12/07 12:23:59;;;;;;;38.00;18.90;;;27.40;99.90;;;;;;5082033;28;20042;-65
2022/12/07 12:26:30;;;;;;;268.52;176.93;;;27.30;99.90;;;;;;5082639;28;20527;-63
2022/12/07 12:28:59;;;;;;;53.83;28.35;;;27.30;99.90;;;;;;5083166;28;20032;-64
2022/12/07 12:31:27;;;;;;;36.85;20.70;;;27.30;99.90;;;;;;5074948;28;20365;-65
2022/12/07 12:33:56;;;;;;;38.60;18.58;;;27.30;99.90;;;;;;5082511;28;20024;-64
2022/12/07 12:36:29;;;;;;;46.83;22.70;;;27.30;99.90;;;;;;5093586;28;20028;-64
2022/12/07 12:38:58;;;;;;;84.88;48.40;;;27.30;99.90;;;;;;5083999;28;20055;-64
2022/12/07 12:41:30;;;;;;;147.07;97.22;;;27.40;99.90;;;;;;5090268;28;20020;-65
2022/12/07 12:43:56;;;;;;;134.05;88.97;;;27.40;99.90;;;;;;5081008;28;20086;-64
2022/12/07 12:46:28;;;;;;;117.57;77.75;;;27.40;99.90;;;;;;5074888;28;20028;-65
2022/12/07 12:48:58;;;;;;;119.57;59.20;;;27.50;99.90;;;;;;5078644;28;20515;-64
2022/12/07 12:51:30;;;;;;;59.15;37.15;;;27.60;99.90;;;;;;5078234;28;20032;-67
2022/12/07 12:54:18;;;;;;;106.63;68.05;;;27.60;99.90;;;;;;5078675;28;20067;-65
2022/12/07 12:56:52;;;;;;;146.98;89.00;;;27.60;99.90;;;;;;5071070;28;20052;-65
2022/12/07 12:59:25;;;;;;;168.43;103.40;;;27.60;99.90;;;;;;5079600;28;20036;-65
2022/12/07 13:02:15;;;;;;;143.90;94.78;;;27.60;99.90;;;;;;5077088;28;20100;-63
2022/12/07 13:04:44;;;;;;;77.55;45.17;;;27.60;99.90;;;;;;5078891;28;20449;-64
2022/12/07 13:07:13;;;;;;;41.03;27.30;;;27.60;99.90;;;;;;5075572;28;20020;-63
2022/12/07 13:09:44;;;;;;;93.30;58.47;;;27.60;99.90;;;;;;5085001;28;20036;-64
2022/12/07 13:12:16;;;;;;;73.87;45.10;;;27.60;99.90;;;;;;5072858;28;20025;-62
2022/12/07 13:14:56;;;;;;;41.03;25.67;;;27.50;99.90;;;;;;5084128;28;20032;-64
2022/12/07 13:17:27;;;;;;;30.45;16.92;;;27.50;99.90;;;;;;5072807;28;20035;-64
2022/12/07 13:19:56;;;;;;;33.78;18.05;;;27.50;99.90;;;;;;5084002;28;20156;-63
2022/12/07 13:22:28;;;;;;;28.30;17.92;;;27.40;99.90;;;;;;5101498;28;20039;-64
2022/12/07 13:25:16;;;;;;;27.95;16.42;;;27.40;99.90;;;;;;5094703;28;20020;-65
2022/12/07 13:27:49;;;;;;;26.60;17.30;;;27.40;99.90;;;;;;5100363;28;20024;-64
2022/12/07 13:30:20;;;;;;;44.67;19.52;;;27.30;99.90;;;;;;5094655;28;20476;-65
2022/12/07 13:32:52;;;;;;;32.22;18.08;;;27.30;99.90;;;;;;5096807;28;20487;-65
2022/12/07 13:35:24;;;;;;;32.22;18.73;;;27.30;99.90;;;;;;5098172;28;20035;-65
2022/12/07 13:37:51;;;;;;;32.95;17.75;;;27.30;99.90;;;;;;5097403;28;20024;-65